createdAt,value
2018-10-18T00:02:07.856Z,14.03
2018-10-18T00:04:41.768Z,18.27
2018-10-18T00:07:10.243Z,16.23
2018-10-18T00:09:38.807Z,16.13
2018-10-18T00:12:07.411Z,15.30
2018-10-18T00:14:35.912Z,15.80
2018-10-18T00:20:23.053Z,13.43
2018-10-18T00:22:53.605Z,14.07
2018-10-18T00:25:23.144Z,14.03
2018-10-18T00:27:51.667Z,13.93
2018-10-18T00:30:20.370Z,15.13
2018-10-18T00:32:48.701Z,14.50
2018-10-18T00:35:17.219Z,18.10
2018-10-18T00:37:46.239Z,15.50
2018-10-18T00:40:15.725Z,15.63
2018-10-18T00:42:44.074Z,15.03
2018-10-18T00:45:24.842Z,14.27
2018-10-18T00:47:55.489Z,15.20
2018-10-18T00:50:23.927Z,14.70
2018-10-18T00:52:54.545Z,13.67
2018-10-18T00:55:23.194Z,12.27
2018-10-18T00:58:01.695Z,11.97
2018-10-18T01:00:30.128Z,17.07
2018-10-18T01:02:58.644Z,17.13
2018-10-18T01:05:27.111Z,13.33
2018-10-18T01:07:55.567Z,14.50
2018-10-18T01:10:23.964Z,12.27
2018-10-18T01:12:52.464Z,14.10
2018-10-18T01:15:21.026Z,13.70
2018-10-18T01:17:49.504Z,15.63
2018-10-18T01:20:18.078Z,13.20
2018-10-18T01:22:52.005Z,15.37
2018-10-18T01:25:31.616Z,17.47
2018-10-18T01:28:00.169Z,13.80
2018-10-18T01:30:41.078Z,12.43
2018-10-18T01:33:19.507Z,16.13
2018-10-18T01:35:48.048Z,13.30
2018-10-18T01:40:55.983Z,14.27
2018-10-18T01:43:24.466Z,10.77
2018-10-18T01:45:53.017Z,13.53
2018-10-18T01:48:21.521Z,11.60
2018-10-18T01:50:49.982Z,13.13
2018-10-18T01:53:18.430Z,10.10
2018-10-18T01:55:49.116Z,10.83
2018-10-18T01:58:17.653Z,11.27
2018-10-18T02:00:46.186Z,10.80
2018-10-18T02:03:14.896Z,12.87
2018-10-18T02:05:43.549Z,13.37
2018-10-18T02:08:12.209Z,9.50
2018-10-18T02:10:40.654Z,14.07
2018-10-18T02:13:09.137Z,10.57
2018-10-18T02:15:37.660Z,13.50
2018-10-18T02:18:06.384Z,12.80
2018-10-18T02:20:34.865Z,10.40
2018-10-18T02:23:18.289Z,11.37
2018-10-18T02:25:47.846Z,10.77
2018-10-18T02:28:16.885Z,9.10
2018-10-18T02:30:45.335Z,11.47
2018-10-18T02:33:13.773Z,10.33
2018-10-18T02:35:43.006Z,9.70
2018-10-18T02:38:11.556Z,9.87
2018-10-18T02:40:41.813Z,9.73
2018-10-18T02:43:10.314Z,9.60
2018-10-18T02:45:43.741Z,9.63
2018-10-18T02:48:12.376Z,10.67
2018-10-18T02:50:43.936Z,11.50
2018-10-18T02:53:12.454Z,10.17
2018-10-18T02:55:44.358Z,12.57
2018-10-18T02:58:12.871Z,8.63
2018-10-18T03:00:41.383Z,9.13
2018-10-18T03:03:09.870Z,9.20
2018-10-18T03:05:44.297Z,8.30
2018-10-18T03:08:13.863Z,12.33
2018-10-18T03:10:42.251Z,10.03
2018-10-18T03:13:10.674Z,9.47
2018-10-18T03:15:45.366Z,9.20
2018-10-18T03:18:13.940Z,9.67
2018-10-18T03:20:42.281Z,10.07
2018-10-18T03:23:10.715Z,9.80
2018-10-18T03:25:44.710Z,8.20
2018-10-18T03:28:13.172Z,8.87
2018-10-18T03:30:41.711Z,10.33
2018-10-18T03:33:10.223Z,11.00
2018-10-18T03:35:38.771Z,8.80
2018-10-18T03:38:07.310Z,8.13
2018-10-18T03:40:35.825Z,7.77
2018-10-18T03:45:43.980Z,6.50
2018-10-18T03:48:12.541Z,8.87
2018-10-18T03:50:40.968Z,9.17
2018-10-18T03:53:09.380Z,9.93
2018-10-18T03:55:37.967Z,8.27
2018-10-18T03:58:06.444Z,8.63
2018-10-18T04:00:34.951Z,8.27
2018-10-18T04:03:04.081Z,7.93
2018-10-18T04:05:36.407Z,7.50
2018-10-18T04:08:05.203Z,9.50
2018-10-18T04:10:33.769Z,9.70
2018-10-18T04:13:02.332Z,8.30
2018-10-18T04:15:30.801Z,8.87
2018-10-18T04:18:01.359Z,8.13
2018-10-18T04:20:29.800Z,7.33
2018-10-18T04:22:58.337Z,8.97
2018-10-18T04:25:26.926Z,8.70
2018-10-18T04:27:55.308Z,7.27
2018-10-18T04:33:02.393Z,7.40
2018-10-18T04:35:42.545Z,8.33
2018-10-18T04:38:14.829Z,7.83
2018-10-18T04:40:43.781Z,9.27
2018-10-18T04:43:12.745Z,8.27
2018-10-18T04:45:43.796Z,8.97
2018-10-18T04:48:13.293Z,9.70
2018-10-18T04:50:45.816Z,8.53
2018-10-18T04:53:14.781Z,9.13
2018-10-18T04:55:44.296Z,8.20
2018-10-18T04:58:15.256Z,7.63
2018-10-18T05:00:44.283Z,9.00
2018-10-18T05:03:14.828Z,8.63
2018-10-18T05:06:15.030Z,8.33
2018-10-18T05:08:47.377Z,8.00
2018-10-18T05:11:16.053Z,8.37
2018-10-18T05:13:45.330Z,6.60
2018-10-18T05:16:13.986Z,6.63
2018-10-18T05:18:46.008Z,6.93
2018-10-18T05:21:18.001Z,7.40
2018-10-18T05:26:37.125Z,7.33
2018-10-18T05:29:14.508Z,5.27
2018-10-18T05:31:43.257Z,6.93
2018-10-18T05:34:11.653Z,8.43
2018-10-18T05:36:43.691Z,8.57
2018-10-18T05:39:13.857Z,6.83
2018-10-18T05:41:42.464Z,6.97
2018-10-18T05:44:11.038Z,8.93
2018-10-18T05:46:44.390Z,7.97
2018-10-18T05:49:12.975Z,9.93
2018-10-18T05:51:43.357Z,10.83
2018-10-18T05:54:12.082Z,8.73
2018-10-18T05:56:40.716Z,9.27
2018-10-18T05:59:09.296Z,8.90
2018-10-18T06:01:38.102Z,10.30
2018-10-18T06:04:17.837Z,10.50
2018-10-18T06:06:46.397Z,10.20
2018-10-18T06:09:33.686Z,9.33
2018-10-18T06:12:02.260Z,7.47
2018-10-18T06:14:36.350Z,12.83
2018-10-18T06:17:11.191Z,10.57
2018-10-18T06:19:40.262Z,6.97
2018-10-18T06:22:09.277Z,9.73
2018-10-18T06:24:43.311Z,7.40
2018-10-18T06:27:12.241Z,8.33
2018-10-18T06:29:41.257Z,9.57
2018-10-18T06:32:10.348Z,9.17
2018-10-18T06:34:39.413Z,8.73
2018-10-18T06:37:13.553Z,12.13
2018-10-18T06:39:42.377Z,8.43
2018-10-18T06:42:11.379Z,9.10
2018-10-18T06:44:40.873Z,9.93
2018-10-18T06:47:09.613Z,7.70
2018-10-18T06:49:38.444Z,10.10
2018-10-18T06:52:07.257Z,8.80
2018-10-18T06:54:36.031Z,9.10
2018-10-18T06:57:05.823Z,9.07
2018-10-18T06:59:34.350Z,10.13
2018-10-18T07:02:03.097Z,9.00
2018-10-18T07:04:31.628Z,7.13
2018-10-18T07:07:00.182Z,7.50
2018-10-18T07:09:28.722Z,9.60
2018-10-18T07:11:57.492Z,6.70
2018-10-18T07:14:29.765Z,6.27
2018-10-18T07:16:58.372Z,7.57
2018-10-18T07:19:30.824Z,7.83
2018-10-18T07:21:59.507Z,9.13
2018-10-18T07:24:31.189Z,7.03
2018-10-18T07:26:59.838Z,9.73
2018-10-18T07:29:34.749Z,8.07
2018-10-18T07:32:03.330Z,6.20
2018-10-18T07:34:31.774Z,7.23
2018-10-18T07:37:00.300Z,6.20
2018-10-18T07:39:31.664Z,6.87
2018-10-18T07:42:00.259Z,7.60
2018-10-18T07:44:28.819Z,6.57
2018-10-18T07:46:57.653Z,7.27
2018-10-18T07:49:26.153Z,6.53
2018-10-18T07:51:54.608Z,8.00
2018-10-18T07:54:23.113Z,6.40
2018-10-18T07:56:51.542Z,6.57
2018-10-18T07:59:21.381Z,7.40
2018-10-18T08:01:53.460Z,5.23
2018-10-18T08:04:21.906Z,7.10
2018-10-18T08:06:50.458Z,5.30
2018-10-18T08:09:19.002Z,7.50
2018-10-18T08:11:47.540Z,5.60
2018-10-18T08:14:16.226Z,6.90
2018-10-18T08:16:45.052Z,5.33
2018-10-18T08:19:13.656Z,5.63
2018-10-18T08:21:42.229Z,4.70
2018-10-18T08:24:17.208Z,5.83
2018-10-18T08:27:11.677Z,5.33
2018-10-18T08:29:45.113Z,4.67
2018-10-18T08:32:16.132Z,3.83
2018-10-18T08:34:48.494Z,3.13
2018-10-18T08:37:24.793Z,3.47
2018-10-18T08:40:03.028Z,3.10
2018-10-18T08:42:31.490Z,3.17
2018-10-18T08:45:00.836Z,2.43
2018-10-18T08:47:29.868Z,4.10
2018-10-18T08:50:02.089Z,6.43
2018-10-18T08:52:32.742Z,4.50
2018-10-18T08:55:01.323Z,3.92
2018-10-18T08:57:34.006Z,3.97
2018-10-18T09:00:02.493Z,3.37
2018-10-18T09:02:31.288Z,4.73
2018-10-18T09:04:59.997Z,8.33
2018-10-18T09:07:28.860Z,4.33
2018-10-18T09:09:58.569Z,4.10
2018-10-18T09:12:33.019Z,4.53
2018-10-18T09:15:01.549Z,6.17
2018-10-18T09:17:33.262Z,4.40
2018-10-18T09:20:01.954Z,5.60
2018-10-18T09:22:30.668Z,5.37
2018-10-18T09:24:59.347Z,6.17
2018-10-18T09:27:34.325Z,5.93
2018-10-18T09:30:02.826Z,6.80
2018-10-18T09:32:38.444Z,6.17
2018-10-18T09:35:08.421Z,8.80
2018-10-18T09:37:38.375Z,5.53
2018-10-18T09:40:08.209Z,6.93
2018-10-18T09:42:36.765Z,8.63
2018-10-18T09:45:07.556Z,5.60
2018-10-18T09:47:47.301Z,6.97
2018-10-18T09:52:59.790Z,5.17
2018-10-18T09:55:28.457Z,4.50
2018-10-18T09:57:58.285Z,8.40
2018-10-18T10:00:33.222Z,7.17
2018-10-18T10:03:07.188Z,6.50
2018-10-18T10:05:35.708Z,4.67
2018-10-18T10:08:04.160Z,4.63
2018-10-18T10:10:32.661Z,7.80
2018-10-18T10:13:01.273Z,4.00
2018-10-18T10:15:29.969Z,6.03
2018-10-18T10:17:58.866Z,6.60
2018-10-18T10:20:27.442Z,5.93
2018-10-18T10:22:56.118Z,5.03
2018-10-18T10:25:24.952Z,6.63
2018-10-18T10:27:53.894Z,7.27
2018-10-18T10:30:22.458Z,5.50
2018-10-18T10:32:54.478Z,8.33
2018-10-18T10:35:23.194Z,4.77
2018-10-18T10:37:51.709Z,6.73
2018-10-18T10:40:21.440Z,4.93
2018-10-18T10:42:49.949Z,3.07
2018-10-18T10:45:19.257Z,5.28
2018-10-18T10:47:47.938Z,4.23
2018-10-18T10:50:16.819Z,2.77
2018-10-18T10:52:48.319Z,3.43
2018-10-18T10:55:16.894Z,3.20
2018-10-18T10:57:53.551Z,3.73
2018-10-18T11:01:14.973Z,7.03
2018-10-18T11:03:53.670Z,10.83
2018-10-18T11:06:22.549Z,4.87
2018-10-18T11:08:51.122Z,2.33
2018-10-18T11:11:20.480Z,4.17
2018-10-18T11:13:49.629Z,6.13
2018-10-18T11:16:18.721Z,7.03
2018-10-18T11:18:47.718Z,7.40
2018-10-18T11:21:17.843Z,5.07
2018-10-18T11:23:46.700Z,5.13
2018-10-18T11:26:15.860Z,5.77
2018-10-18T11:28:44.712Z,7.43
2018-10-18T11:31:13.737Z,4.57
2018-10-18T11:33:42.350Z,4.43
2018-10-18T11:36:11.170Z,7.43
2018-10-18T11:38:39.694Z,2.90
2018-10-18T11:41:08.300Z,4.13
2018-10-18T11:43:36.905Z,6.00
2018-10-18T11:46:05.683Z,4.67
2018-10-18T11:48:34.858Z,5.33
2018-10-18T11:51:03.413Z,4.07
2018-10-18T11:53:32.027Z,7.07
2018-10-18T11:56:00.658Z,2.90
2018-10-18T11:58:29.188Z,8.50
2018-10-18T12:00:57.902Z,4.87
2018-10-18T12:03:26.391Z,2.73
2018-10-18T12:05:54.935Z,5.40
2018-10-18T12:08:25.062Z,7.10
2018-10-18T12:10:53.659Z,5.47
2018-10-18T12:13:22.096Z,4.50
2018-10-18T12:15:50.553Z,1.70
2018-10-18T12:18:19.270Z,5.27
2018-10-18T12:20:47.792Z,4.63
2018-10-18T12:23:23.046Z,3.87
2018-10-18T12:25:52.102Z,4.37
2018-10-18T12:28:21.010Z,2.83
2018-10-18T12:30:50.085Z,4.33
2018-10-18T12:33:22.597Z,5.00
2018-10-18T12:35:57.253Z,4.53
2018-10-18T12:38:28.127Z,4.37
2018-10-18T12:40:57.417Z,2.33
2018-10-18T12:43:31.177Z,4.73
2018-10-18T12:45:59.707Z,3.03
2018-10-18T12:51:04.192Z,4.77
2018-10-18T12:53:35.425Z,2.77
2018-10-18T12:56:04.181Z,4.83
2018-10-18T12:58:32.715Z,5.20
2018-10-18T13:01:01.365Z,7.53
2018-10-18T13:03:30.033Z,4.87
2018-10-18T13:05:58.626Z,4.00
2018-10-18T13:08:27.033Z,2.77
2018-10-18T13:10:55.750Z,3.80
2018-10-18T13:13:24.575Z,6.30
2018-10-18T13:15:53.001Z,3.97
2018-10-18T13:18:21.457Z,6.20
2018-10-18T13:20:50.048Z,4.63
2018-10-18T13:23:18.587Z,5.47
2018-10-18T13:25:47.617Z,2.97
2018-10-18T13:28:16.894Z,2.87
2018-10-18T13:30:45.486Z,6.40
2018-10-18T13:33:14.163Z,4.07
2018-10-18T13:35:43.021Z,1.93
2018-10-18T13:38:11.607Z,4.87
2018-10-18T13:40:40.685Z,2.57
2018-10-18T13:43:09.287Z,2.80
2018-10-18T13:45:37.727Z,7.33
2018-10-18T13:48:06.499Z,3.33
2018-10-18T13:50:35.602Z,5.60
2018-10-18T13:53:04.185Z,4.07
2018-10-18T13:55:32.789Z,3.73
2018-10-18T13:58:01.391Z,4.67
2018-10-18T14:00:31.522Z,3.87
2018-10-18T14:03:00.532Z,4.90
2018-10-18T14:05:29.587Z,3.70
2018-10-18T14:07:59.192Z,3.33
2018-10-18T14:10:27.792Z,4.70
2018-10-18T14:12:57.838Z,4.50
2018-10-18T14:15:26.334Z,5.93
2018-10-18T14:17:55.055Z,5.33
2018-10-18T14:20:23.503Z,4.20
2018-10-18T14:22:52.082Z,1.80
2018-10-18T14:25:20.638Z,5.70
2018-10-18T14:27:49.287Z,6.43
2018-10-18T14:30:17.924Z,5.10
2018-10-18T14:32:47.907Z,2.07
2018-10-18T14:35:16.471Z,4.53
2018-10-18T14:37:45.716Z,2.57
2018-10-18T14:40:14.485Z,2.07
2018-10-18T14:42:43.724Z,3.73
2018-10-18T14:45:12.768Z,3.20
2018-10-18T14:47:41.619Z,2.10
2018-10-18T14:50:14.923Z,1.20
2018-10-18T14:52:50.045Z,5.07
2018-10-18T14:55:20.044Z,2.83
2018-10-18T14:57:48.821Z,4.80
2018-10-18T15:00:18.286Z,3.60
2018-10-18T15:02:47.448Z,1.40
2018-10-18T15:05:27.868Z,5.43
2018-10-18T15:07:57.939Z,5.10
2018-10-18T15:10:30.885Z,2.23
2018-10-18T15:13:01.339Z,1.73
2018-10-18T15:15:30.292Z,4.17
2018-10-18T15:18:00.579Z,3.30
2018-10-18T15:20:29.194Z,4.00
2018-10-18T15:23:08.377Z,3.33
2018-10-18T15:25:37.386Z,1.77
2018-10-18T15:28:12.371Z,2.63
2018-10-18T15:30:40.973Z,4.23
2018-10-18T15:33:09.614Z,5.77
2018-10-18T15:35:44.557Z,3.67
2018-10-18T15:38:13.400Z,2.10
2018-10-18T15:40:46.041Z,2.60
2018-10-18T15:43:15.542Z,1.30
2018-10-18T15:46:00.734Z,3.70
2018-10-18T15:48:40.504Z,2.87
2018-10-18T15:51:11.019Z,4.10
2018-10-18T15:53:40.464Z,2.30
2018-10-18T15:56:10.579Z,2.60
2018-10-18T15:58:39.250Z,1.40
2018-10-18T16:01:13.128Z,2.60
2018-10-18T16:03:42.836Z,2.40
2018-10-18T16:06:11.498Z,2.43
2018-10-18T16:08:41.449Z,3.27
2018-10-18T16:11:15.296Z,5.15
2018-10-18T16:13:44.698Z,5.23
2018-10-18T16:16:13.337Z,4.03
2018-10-18T16:18:41.930Z,3.63
2018-10-18T16:21:14.642Z,37.40
2018-10-18T16:23:47.394Z,15.87
2018-10-18T16:26:27.405Z,11.33
2018-10-18T16:28:58.474Z,13.37
2018-10-18T16:31:29.377Z,23.27
2018-10-18T16:33:58.142Z,43.73
2018-10-18T16:36:28.617Z,33.07
2018-10-18T16:38:59.278Z,43.93
2018-10-18T16:41:30.042Z,13.07
2018-10-18T16:43:58.565Z,10.87
2018-10-18T16:46:27.137Z,3.93
2018-10-18T16:48:55.939Z,7.37
2018-10-18T16:51:26.427Z,5.37
2018-10-18T16:53:55.156Z,9.00
2018-10-18T16:56:33.266Z,7.47
2018-10-18T16:59:01.913Z,5.73
2018-10-18T17:01:30.473Z,4.27
2018-10-18T17:06:48.136Z,10.43
2018-10-18T17:09:21.857Z,4.30
2018-10-18T17:11:52.411Z,6.67
2018-10-18T17:14:21.921Z,7.40
2018-10-18T17:16:50.989Z,2.10
2018-10-18T17:19:19.637Z,3.90
2018-10-18T17:21:51.017Z,5.20
2018-10-18T17:24:23.637Z,4.53
2018-10-18T17:26:55.468Z,1.43
2018-10-18T17:29:42.981Z,6.70
2018-10-18T17:32:23.846Z,2.47
2018-10-18T17:34:52.525Z,3.97
2018-10-18T17:37:21.583Z,4.57
2018-10-18T17:39:50.614Z,2.43
2018-10-18T17:42:19.707Z,4.60
2018-10-18T17:47:33.645Z,5.43
2018-10-18T17:50:02.747Z,2.43
2018-10-18T17:52:34.073Z,3.37
2018-10-18T17:55:04.700Z,4.43
2018-10-18T17:57:33.681Z,7.67
2018-10-18T18:00:02.788Z,1.97
2018-10-18T18:02:34.664Z,3.30
2018-10-18T18:05:03.480Z,4.80
2018-10-18T18:07:32.222Z,2.70
2018-10-18T18:10:00.783Z,1.90
2018-10-18T18:12:29.713Z,5.03
2018-10-18T18:14:58.562Z,7.10
2018-10-18T18:17:27.542Z,4.17
2018-10-18T18:19:56.277Z,4.00
2018-10-18T18:22:25.768Z,5.20
2018-10-18T18:24:54.784Z,8.40
2018-10-18T18:27:33.902Z,6.75
2018-10-18T18:30:02.880Z,7.40
2018-10-18T18:32:31.414Z,3.97
2018-10-18T18:35:05.257Z,7.33
2018-10-18T18:37:34.916Z,4.30
2018-10-18T18:40:09.918Z,2.13
2018-10-18T18:42:39.397Z,2.13
2018-10-18T18:45:13.407Z,5.17
2018-10-18T18:47:42.377Z,2.23
2018-10-18T18:50:11.022Z,3.03
2018-10-18T18:52:39.962Z,2.27
2018-10-18T18:55:09.925Z,5.37
2018-10-18T18:57:44.201Z,3.77
2018-10-18T19:00:13.036Z,3.07
2018-10-18T19:02:42.138Z,2.57
2018-10-18T19:05:11.011Z,3.73
2018-10-18T19:07:39.605Z,3.23
2018-10-18T19:10:08.910Z,2.87
2018-10-18T19:12:37.412Z,2.27
2018-10-18T19:15:07.760Z,3.40
2018-10-18T19:17:36.866Z,4.75
2018-10-18T19:20:05.793Z,3.70
2018-10-18T19:22:34.468Z,3.27
2018-10-18T19:25:03.094Z,4.20
2018-10-18T19:27:31.756Z,2.33
2018-10-18T19:30:00.261Z,3.40
2018-10-18T19:32:28.873Z,3.57
2018-10-18T19:34:57.404Z,2.93
2018-10-18T19:37:25.781Z,6.33
2018-10-18T19:39:54.529Z,3.87
2018-10-18T19:42:24.092Z,4.60
2018-10-18T19:44:55.700Z,3.60
2018-10-18T19:47:24.530Z,4.93
2018-10-18T19:49:53.022Z,4.37
2018-10-18T19:52:21.602Z,1.93
2018-10-18T19:54:49.920Z,3.73
2018-10-18T19:57:24.683Z,2.60
2018-10-18T19:59:53.125Z,7.80
2018-10-18T20:02:22.418Z,2.90
2018-10-18T20:04:51.170Z,3.03
2018-10-18T20:07:19.945Z,3.50
2018-10-18T20:09:49.631Z,8.03
2018-10-18T20:12:18.149Z,3.60
2018-10-18T20:14:54.744Z,4.77
2018-10-18T20:17:39.413Z,3.00
2018-10-18T20:20:08.872Z,4.23
2018-10-18T20:22:37.343Z,3.30
2018-10-18T20:25:07.093Z,4.83
2018-10-18T20:27:35.309Z,4.23
2018-10-18T20:30:03.912Z,2.63
2018-10-18T20:32:32.455Z,3.37
2018-10-18T20:35:00.949Z,3.10
2018-10-18T20:37:29.412Z,8.20
2018-10-18T20:40:01.358Z,5.23
2018-10-18T20:42:29.853Z,3.33
2018-10-18T20:45:08.699Z,4.30
2018-10-18T20:47:37.193Z,8.00
2018-10-18T20:50:06.477Z,3.63
2018-10-18T20:52:35.043Z,4.87
2018-10-18T20:55:03.567Z,6.00
2018-10-18T20:57:42.022Z,3.33
2018-10-18T21:00:11.239Z,3.43
2018-10-18T21:02:40.475Z,5.67
2018-10-18T21:05:09.213Z,4.43
2018-10-18T21:07:37.755Z,5.47
2018-10-18T21:10:15.744Z,4.77
2018-10-18T21:12:44.280Z,3.13
2018-10-18T21:15:12.652Z,2.90
2018-10-18T21:17:41.471Z,8.70
2018-10-18T21:20:10.678Z,2.47
2018-10-18T21:22:39.639Z,5.60
2018-10-18T21:25:08.674Z,4.00
2018-10-18T21:27:37.718Z,3.20
2018-10-18T21:30:07.106Z,4.87
2018-10-18T21:32:35.727Z,3.57
2018-10-18T21:35:04.775Z,4.83
2018-10-18T21:37:33.756Z,4.53
2018-10-18T21:40:02.763Z,2.60
2018-10-18T21:42:32.721Z,1.40
2018-10-18T21:45:02.277Z,2.30
2018-10-18T21:47:31.267Z,5.90
2018-10-18T21:49:59.836Z,3.40
2018-10-18T21:52:28.827Z,1.20
2018-10-18T21:54:57.783Z,1.63
2018-10-18T21:57:26.636Z,1.47
2018-10-18T21:59:55.829Z,2.50
2018-10-18T22:02:24.990Z,1.37
2018-10-18T22:04:53.903Z,3.10
2018-10-18T22:07:22.907Z,1.30
2018-10-18T22:09:51.877Z,2.30
2018-10-18T22:12:20.988Z,3.10
2018-10-18T22:14:49.961Z,2.70
2018-10-18T22:17:25.638Z,3.20
2018-10-18T22:19:54.042Z,2.00
2018-10-18T22:22:23.001Z,2.57
2018-10-18T22:24:52.002Z,1.83
2018-10-18T22:27:20.997Z,2.63
2018-10-18T22:29:49.968Z,4.27
2018-10-18T22:32:18.977Z,3.70
2018-10-18T22:34:47.987Z,2.37
2018-10-18T22:37:16.868Z,3.73
2018-10-18T22:39:46.046Z,3.83
2018-10-18T22:42:15.104Z,4.30
2018-10-18T22:44:44.086Z,3.03
2018-10-18T22:47:16.832Z,5.87
2018-10-18T22:49:45.560Z,2.97
2018-10-18T22:52:14.199Z,4.67
2018-10-18T22:54:43.138Z,7.50
2018-10-18T22:57:12.203Z,7.23
2018-10-18T22:59:45.118Z,8.03
2018-10-18T23:02:14.129Z,6.07
2018-10-18T23:04:42.713Z,8.07
2018-10-18T23:07:11.704Z,9.03
2018-10-18T23:09:40.265Z,9.23
2018-10-18T23:12:09.361Z,8.70
2018-10-18T23:14:39.693Z,8.70
2018-10-18T23:17:08.310Z,7.90
2018-10-18T23:19:37.292Z,3.70
2018-10-18T23:22:07.309Z,5.60
2018-10-18T23:24:37.724Z,4.27
2018-10-18T23:27:07.874Z,4.77
2018-10-18T23:29:37.341Z,5.67
2018-10-18T23:32:07.544Z,3.77
2018-10-18T23:34:36.330Z,5.60
2018-10-18T23:37:05.444Z,4.60
2018-10-18T23:39:34.385Z,4.00
2018-10-18T23:42:03.172Z,4.63
2018-10-18T23:44:37.851Z,4.53
2018-10-18T23:47:08.038Z,3.27
2018-10-18T23:49:36.546Z,2.40
2018-10-18T23:52:06.735Z,2.93
2018-10-18T23:54:35.457Z,4.77
2018-10-18T23:57:04.059Z,1.80
2018-10-18T23:59:32.392Z,3.83
